^^
Datos históricos de la estación: Murcia-Puente Tocinos
Diario Informe para Junio 19, 2021 Unidades:  Ambas    Ingés   Métrico
Diario Semanal Mensual Anual
  Máxima: Mínima: Promedio:
Temperatura: 79.3 °F /  26.3 °C 70.3 °F /  21.3 °C 73.8 °F /  23.2 °C
Punto de rocio: 67.5 °F /  19.7 °C 65.1 °F /  18.4 °C 66 °F /  18.9 °C
Humedad: 88% 64.9% 77%
Velocidad viento: 9.2mph /  14.8km/h - 4.8mph /  7.7km/h
Racha viento: 18mph /  29km/h - -
Viento- - ESE
Presión: 29.9 in /  1013.6 hPa 29.8 in /  1010.7 hPa -
Precipitación: 0.02 in /  0.5 mm    
 
 
Tabla de datos para Junio 19, 2021
Hora Temperatura Punto de rocio Presión Viento Velocidad viento Racha viento Humedad Intensidad lluvia(por hora) Nubes
00:04 72.3 °F /  22.4 °C 66.2 °F /  19 °C 29.9in /  1013.4hPa NE 3.6mph /  5.8km/h 7mph /  11.3km/h 81% 0in /  0.0mm
00:09 72.3 °F /  22.4 °C 66.2 °F /  19 °C 29.9in /  1013.4hPa NE 3.6mph /  5.8km/h 7mph /  11.3km/h 81% 0in /  0.0mm
00:14 72.3 °F /  22.4 °C 66.2 °F /  19 °C 29.9in /  1013.4hPa NE 3.6mph /  5.8km/h 5.9mph /  9.5km/h 81% 0in /  0.0mm
00:19 72.3 °F /  22.4 °C 66.2 °F /  19 °C 29.9in /  1013.4hPa NE 3.6mph /  5.8km/h 6mph /  9.7km/h 81% 0in /  0.0mm
00:24 72.3 °F /  22.4 °C 66.2 °F /  19 °C 29.9in /  1013.4hPa NNE 3.6mph /  5.8km/h 6mph /  9.7km/h 81% 0in /  0.0mm
00:29 72.3 °F /  22.4 °C 66.2 °F /  19 °C 29.9in /  1013.3hPa ENE 3.2mph /  5.1km/h 5.8mph /  9.3km/h 81% 0in /  0.0mm
00:34 72.3 °F /  22.4 °C 66.2 °F /  19 °C 29.9in /  1013.3hPa NE 2.9mph /  4.6km/h 6mph /  9.7km/h 81% 0in /  0.0mm
00:39 72.3 °F /  22.4 °C 66.2 °F /  19 °C 29.9in /  1013.3hPa NNO 2.9mph /  4.6km/h 6.4mph /  10.3km/h 81% 0in /  0.0mm
00:44 72.3 °F /  22.4 °C 66.2 °F /  19 °C 29.9in /  1013.0hPa NNO 2.9mph /  4.7km/h 6.9mph /  11.1km/h 81% 0in /  0.0mm
00:49 72.3 °F /  22.4 °C 66.2 °F /  19 °C 29.9in /  1013.0hPa ONO 3.3mph /  5.3km/h 7mph /  11.3km/h 81.2% 0in /  0.0mm
00:54 72.3 °F /  22.4 °C 66.4 °F /  19.1 °C 29.9in /  1013.0hPa Este 3.6mph /  5.8km/h 6.9mph /  11.1km/h 81.6% 0in /  0.0mm
00:59 72.1 °F /  22.3 °C 66.2 °F /  19 °C 29.9in /  1013.0hPa NE 3.3mph /  5.3km/h 7mph /  11.3km/h 81.4% 0in /  0.0mm
01:04 72.1 °F /  22.3 °C 66.4 °F /  19.1 °C 29.9in /  1013.0hPa SE 3.1mph /  5km/h 6mph /  9.7km/h 82% 0in /  0.0mm
01:09 72.3 °F /  22.4 °C 66.2 °F /  19 °C 29.9in /  1013.2hPa ESE 3mph /  4.8km/h 5mph /  8km/h 81.2% 0in /  0.0mm
01:14 72.1 °F /  22.3 °C 66 °F /  18.9 °C 29.9in /  1013.2hPa Este 2.9mph /  4.6km/h 4.6mph /  7.4km/h 81% 0in /  0.0mm
01:19 72.1 °F /  22.3 °C 66 °F /  18.9 °C 29.9in /  1013.2hPa NE 2.9mph /  4.7km/h 5.2mph /  8.4km/h 81.3% 0in /  0.0mm
01:24 72.1 °F /  22.3 °C 66.2 °F /  19 °C 29.9in /  1013.2hPa NE 2.9mph /  4.7km/h 7.4mph /  11.9km/h 81.9% 0in /  0.0mm
01:29 72 °F /  22.2 °C 66.2 °F /  19 °C 29.9in /  1013.0hPa NE 3.5mph /  5.6km/h 7mph /  11.3km/h 82% 0in /  0.0mm
01:34 72 °F /  22.2 °C 66.2 °F /  19 °C 29.9in /  1013.0hPa NE 4mph /  6.5km/h 7mph /  11.3km/h 82% 0in /  0.0mm
01:39 72 °F /  22.2 °C 66 °F /  18.9 °C 29.9in /  1013.0hPa NE 4mph /  6.5km/h 7mph /  11.3km/h 82% 0in /  0.0mm
01:44 71.8 °F /  22.1 °C 66 °F /  18.9 °C 29.9in /  1012.6hPa NE 4mph /  6.5km/h 6mph /  9.7km/h 82% 0in /  0.0mm
01:49 71.8 °F /  22.1 °C 66 °F /  18.9 °C 29.9in /  1012.6hPa NE 3.8mph /  6.1km/h 6mph /  9.7km/h 82% 0in /  0.0mm
01:51 71.8 °F /  22.1 °C 66 °F /  18.9 °C 29.9in /  1012.6hPa North 3.6mph /  5.8km/h 5.9mph /  9.5km/h 82% 0in /  0.0mm
01:59 71.6 °F /  22 °C 65.8 °F /  18.8 °C 29.9in /  1013.0hPa NNE 3.6mph /  5.8km/h 6.2mph /  10km/h 82% 0in /  0.0mm
02:04 71.4 °F /  21.9 °C 65.7 °F /  18.7 °C 29.9in /  1013.0hPa NNE 3.6mph /  5.8km/h 6mph /  9.7km/h 82% 0in /  0.0mm
02:09 71.4 °F /  21.9 °C 65.8 °F /  18.8 °C 29.9in /  1013.1hPa NE 3.6mph /  5.8km/h 7.4mph /  11.9km/h 82.6% 0in /  0.0mm
02:14 71.4 °F /  21.9 °C 66 °F /  18.9 °C 29.9in /  1013.1hPa NNE 3.6mph /  5.8km/h 7mph /  11.3km/h 83% 0in /  0.0mm
02:19 71.4 °F /  21.9 °C 66 °F /  18.9 °C 29.9in /  1013.1hPa NNE 3.6mph /  5.8km/h 6mph /  9.7km/h 83% 0in /  0.0mm
02:24 71.4 °F /  21.9 °C 66 °F /  18.9 °C 29.9in /  1013.1hPa NNE 3.6mph /  5.8km/h 5mph /  8km/h 83% 0in /  0.0mm
02:29 71.2 °F /  21.8 °C 65.8 °F /  18.8 °C 29.9in /  1013.1hPa NNE 3.2mph /  5.1km/h 5mph /  8km/h 83% 0in /  0.0mm
02:34 71.2 °F /  21.8 °C 65.8 °F /  18.8 °C 29.9in /  1013.1hPa North 2.9mph /  4.7km/h 5mph /  8km/h 83% 0in /  0.0mm
02:39 71.2 °F /  21.8 °C 65.8 °F /  18.8 °C 29.9in /  1013.3hPa NO 2.9mph /  4.6km/h 5.4mph /  8.7km/h 83% 0in /  0.0mm
02:44 71.2 °F /  21.8 °C 65.8 °F /  18.8 °C 29.9in /  1013.3hPa NO 2.9mph /  4.7km/h 6mph /  9.7km/h 83.1% 0in /  0.0mm
02:49 71.1 °F /  21.7 °C 66 °F /  18.9 °C 29.9in /  1013.3hPa ONO 3.3mph /  5.3km/h 6mph /  9.7km/h 84% 0in /  0.0mm
02:54 71.1 °F /  21.7 °C 66 °F /  18.9 °C 29.9in /  1013.3hPa NO 3.6mph /  5.8km/h 6mph /  9.7km/h 84% 0in /  0.0mm
02:59 71.1 °F /  21.7 °C 66 °F /  18.9 °C 29.9in /  1013.3hPa NO 3.1mph /  5km/h 5mph /  8km/h 84% 0in /  0.0mm
03:04 71.1 °F /  21.7 °C 66.2 °F /  19 °C 29.9in /  1013.3hPa NO 2.9mph /  4.6km/h 5mph /  8km/h 84.5% 0in /  0.0mm
03:09 71.1 °F /  21.7 °C 66.4 °F /  19.1 °C 29.9in /  1013.3hPa NO 3mph /  4.8km/h 5.2mph /  8.4km/h 85% 0in /  0.0mm
03:14 71.1 °F /  21.7 °C 66.4 °F /  19.1 °C 29.9in /  1013.2hPa NNO 3.1mph /  5km/h 5.9mph /  9.5km/h 85% 0in /  0.0mm
03:19 70.9 °F /  21.6 °C 66.2 °F /  19 °C 29.9in /  1013.2hPa NNO 3mph /  4.8km/h 6mph /  9.7km/h 85% 0in /  0.0mm
03:24 70.9 °F /  21.6 °C 66 °F /  18.9 °C 29.9in /  1013.2hPa NO 2.9mph /  4.7km/h 5mph /  8km/h 85% 0in /  0.0mm
03:29 70.9 °F /  21.6 °C 66 °F /  18.9 °C 29.9in /  1013.2hPa North 2.6mph /  4.2km/h 5mph /  8km/h 85% 0in /  0.0mm
03:34 70.9 °F /  21.6 °C 66 °F /  18.9 °C 29.9in /  1013.2hPa North 2.4mph /  3.9km/h 5.8mph /  9.3km/h 85% 0in /  0.0mm
03:39 70.9 °F /  21.6 °C 66 °F /  18.9 °C 29.9in /  1013.2hPa NNE 3mph /  4.9km/h 6mph /  9.7km/h 85% 0in /  0.0mm
03:44 70.7 °F /  21.5 °C 66 °F /  18.9 °C 29.9in /  1013.0hPa North 3.6mph /  5.8km/h 6.2mph /  10km/h 85% 0in /  0.0mm
03:49 70.7 °F /  21.5 °C 66.2 °F /  19 °C 29.9in /  1013.0hPa North 3.6mph /  5.8km/h 6mph /  9.7km/h 85.5% 0in /  0.0mm
03:54 70.7 °F /  21.5 °C 66.4 °F /  19.1 °C 29.9in /  1013.0hPa NNE 3.6mph /  5.8km/h 6mph /  9.7km/h 86% 0in /  0.0mm
03:59 70.7 °F /  21.5 °C 66.2 °F /  19 °C 29.9in /  1012.9hPa NE 3.2mph /  5.1km/h 5.4mph /  8.7km/h 86% 0in /  0.0mm
04:04 70.7 °F /  21.5 °C 66.2 °F /  19 °C 29.9in /  1012.9hPa North 2.9mph /  4.6km/h 5mph /  8km/h 86% 0in /  0.0mm
04:09 70.7 °F /  21.5 °C 66.4 °F /  19.1 °C 29.9in /  1013.1hPa NNE 2.6mph /  4.2km/h 5mph /  8km/h 86% 0in /  0.0mm
04:14 70.7 °F /  21.5 °C 66.4 °F /  19.1 °C 29.9in /  1013.1hPa NNO 2.4mph /  3.9km/h 4.6mph /  7.4km/h 86% 0in /  0.0mm
04:19 70.7 °F /  21.5 °C 66.4 °F /  19.1 °C 29.9in /  1013.1hPa NNO 2.4mph /  3.8km/h 5.9mph /  9.5km/h 86% 0in /  0.0mm
04:24 70.7 °F /  21.5 °C 66.2 °F /  19 °C 29.9in /  1013.1hPa North 2.4mph /  3.9km/h 6mph /  9.7km/h 86% 0in /  0.0mm
04:29 70.5 °F /  21.4 °C 66 °F /  18.9 °C 29.9in /  1012.9hPa NO 2.9mph /  4.6km/h 6.2mph /  10km/h 86% 0in /  0.0mm
04:34 70.5 °F /  21.4 °C 66 °F /  18.9 °C 29.9in /  1012.7hPa NO 3.1mph /  5km/h 6mph /  9.7km/h 86% 0in /  0.0mm
04:39 70.5 °F /  21.4 °C 66.2 °F /  19 °C 29.9in /  1012.7hPa NO 3mph /  4.8km/h 6mph /  9.7km/h 86.1% 0in /  0.0mm
04:44 70.5 °F /  21.4 °C 66.4 °F /  19.1 °C 29.9in /  1012.6hPa NO 2.9mph /  4.6km/h 5mph /  8km/h 86.8% 0in /  0.0mm
04:49 70.5 °F /  21.4 °C 66.2 °F /  19 °C 29.9in /  1012.6hPa NO 2.9mph /  4.6km/h 5mph /  8km/h 86.2% 0in /  0.0mm
04:54 70.5 °F /  21.4 °C 66.6 °F /  19.2 °C 29.9in /  1012.6hPa ONO 2.9mph /  4.6km/h 5.2mph /  8.4km/h 87% 0in /  0.0mm
04:59 70.5 °F /  21.4 °C 66.6 °F /  19.2 °C 29.9in /  1012.6hPa NO 2.5mph /  4.1km/h 5.2mph /  8.4km/h 87% 0in /  0.0mm
05:04 70.5 °F /  21.4 °C 66.6 °F /  19.2 °C 29.9in /  1012.5hPa NO 2.4mph /  3.9km/h 5.8mph /  9.3km/h 87% 0in /  0.0mm
05:09 70.5 °F /  21.4 °C 66.6 °F /  19.2 °C 29.9in /  1012.5hPa NO 2.8mph /  4.5km/h 6mph /  9.7km/h 87% 0in /  0.0mm
05:14 70.5 °F /  21.4 °C 66.6 °F /  19.2 °C 29.9in /  1012.5hPa NO 3.1mph /  5km/h 5.2mph /  8.4km/h 87% 0in /  0.0mm
05:19 70.3 °F /  21.3 °C 66.4 °F /  19.1 °C 29.9in /  1012.5hPa NO 3mph /  4.8km/h 5.4mph /  8.7km/h 87% 0in /  0.0mm
05:24 70.3 °F /  21.3 °C 66.4 °F /  19.1 °C 29.9in /  1012.5hPa ONO 2.9mph /  4.6km/h 6mph /  9.7km/h 87% 0in /  0.0mm
05:29 70.3 °F /  21.3 °C 66.4 °F /  19.1 °C 29.9in /  1012.5hPa Oeste 3.3mph /  5.3km/h 6.2mph /  10km/h 87.1% 0in /  0.0mm
05:34 70.3 °F /  21.3 °C 66.6 °F /  19.2 °C 29.9in /  1012.4hPa Oeste 3.6mph /  5.8km/h 6.9mph /  11.1km/h 87.9% 0in /  0.0mm
05:39 70.3 °F /  21.3 °C 66.6 °F /  19.2 °C 29.9in /  1012.9hPa OSO 3.6mph /  5.8km/h 6.2mph /  10km/h 88% 0in /  0.0mm
05:44 70.3 °F /  21.3 °C 66.6 °F /  19.2 °C 29.9in /  1012.9hPa Oeste 3.6mph /  5.8km/h 6.2mph /  10km/h 88% 0in /  0.0mm
05:49 70.3 °F /  21.3 °C 66.6 °F /  19.2 °C 29.9in /  1012.9hPa Oeste 3.3mph /  5.3km/h 6mph /  9.7km/h 88% 0in /  0.0mm
05:54 70.3 °F /  21.3 °C 66.4 °F /  19.1 °C 29.9in /  1012.9hPa Oeste 3.1mph /  5km/h 6.9mph /  11.1km/h 87.2% 0in /  0.0mm
05:59 70.5 °F /  21.4 °C 66.6 °F /  19.2 °C 29.9in /  1012.6hPa Oeste 3mph /  4.8km/h 7mph /  11.3km/h 87% 0in /  0.0mm
06:04 70.5 °F /  21.4 °C 66.6 °F /  19.2 °C 29.9in /  1012.4hPa North 2.9mph /  4.6km/h 4.6mph /  7.4km/h 87% 0in /  0.0mm
06:09 70.5 °F /  21.4 °C 66.6 °F /  19.2 °C 29.9in /  1012.4hPa NNE 2.4mph /  3.8km/h 5mph /  8km/h 87% 0in /  0.0mm
06:14 70.5 °F /  21.4 °C 66.6 °F /  19.2 °C 29.9in /  1011.9hPa NNE 2mph /  3.2km/h 5.4mph /  8.7km/h 87% 0in /  0.0mm
06:19 70.5 °F /  21.4 °C 66.6 °F /  19.2 °C 29.9in /  1011.7hPa NE 2.5mph /  4km/h 6mph /  9.7km/h 87% 0in /  0.0mm
06:24 70.3 °F /  21.3 °C 66.4 °F /  19.1 °C 29.9in /  1011.7hPa NNE 2.9mph /  4.6km/h 6mph /  9.7km/h 87% 0in /  0.0mm
06:29 70.3 °F /  21.3 °C 66.4 °F /  19.1 °C 29.9in /  1010.9hPa North 3.3mph /  5.3km/h 6mph /  9.7km/h 87% 0in /  0.0mm
06:34 70.3 °F /  21.3 °C 66.4 °F /  19.1 °C 29.8in /  1010.7hPa ONO 3.6mph /  5.8km/h 5.9mph /  9.5km/h 87% 0in /  0.0mm
06:39 70.3 °F /  21.3 °C 66.4 °F /  19.1 °C 29.9in /  1011.4hPa OSO 3.3mph /  5.3km/h 10.7mph /  17.2km/h 87% 0in /  0.0mm
06:44 70.3 °F /  21.3 °C 66.4 °F /  19.1 °C 29.9in /  1011.4hPa OSO 3.1mph /  5km/h 11mph /  17.7km/h 87% 0in /  0.0mm
06:49 70.5 °F /  21.4 °C 66.6 °F /  19.2 °C 29.9in /  1011.4hPa SO 4.7mph /  7.6km/h 11.5mph /  18.5km/h 87% 0in /  0.0mm
06:54 70.7 °F /  21.5 °C 66.6 °F /  19.2 °C 29.9in /  1012.3hPa SO 6.2mph /  10km/h 12.7mph /  20.4km/h 86.7% 0in /  0.0mm
06:59 70.9 °F /  21.6 °C 66.6 °F /  19.2 °C 29.9in /  1012.3hPa SO 6.9mph /  11.1km/h 12.7mph /  20.4km/h 86% 0in /  0.0mm
07:04 70.7 °F /  21.5 °C 66.2 °F /  19 °C 29.9in /  1012.3hPa SO 7.4mph /  11.9km/h 12.7mph /  20.4km/h 86% 0in /  0.0mm
07:09 70.5 °F /  21.4 °C 66 °F /  18.9 °C 29.9in /  1012.3hPa SO 6.8mph /  11km/h 13mph /  20.9km/h 86% 0in /  0.0mm
07:14 70.5 °F /  21.4 °C 66.2 °F /  19 °C 29.9in /  1012.2hPa SO 6.4mph /  10.3km/h 9mph /  14.5km/h 86% 0in /  0.0mm
07:19 70.5 °F /  21.4 °C 66 °F /  18.9 °C 29.9in /  1012.2hPa OSO 5.5mph /  8.8km/h 8mph /  12.9km/h 86% 0in /  0.0mm
07:24 70.3 °F /  21.3 °C 66 °F /  18.9 °C 29.9in /  1012.2hPa OSO 4.7mph /  7.6km/h 8.1mph /  13km/h 86% 0in /  0.0mm
07:29 70.3 °F /  21.3 °C 66 °F /  18.9 °C 29.9in /  1011.9hPa SO 5mph /  8km/h 10.4mph /  16.7km/h 86.3% 0in /  0.0mm
07:34 70.3 °F /  21.3 °C 66.2 °F /  19 °C 29.9in /  1011.8hPa Sur 5.2mph /  8.4km/h 11.5mph /  18.5km/h 86.9% 0in /  0.0mm
07:39 70.3 °F /  21.3 °C 66 °F /  18.9 °C 29.9in /  1011.9hPa SO 5.3mph /  8.5km/h 12mph /  19.3km/h 86% 0in /  0.0mm
07:44 70.5 °F /  21.4 °C 66 °F /  18.9 °C 29.9in /  1011.9hPa Sur 5.4mph /  8.7km/h 10mph /  16.1km/h 86% 0in /  0.0mm
07:49 70.5 °F /  21.4 °C 66 °F /  18.9 °C 29.9in /  1011.9hPa SSE 5mph /  8km/h 10.4mph /  16.7km/h 86% 0in /  0.0mm
07:54 70.5 °F /  21.4 °C 66 °F /  18.9 °C 29.9in /  1012.2hPa SSE 4.7mph /  7.6km/h 10mph /  16.1km/h 85.4% 0in /  0.0mm
07:59 70.5 °F /  21.4 °C 65.8 °F /  18.8 °C 29.9in /  1012.2hPa Sur 4mph /  6.5km/h 7mph /  11.3km/h 85% 0in /  0.0mm
08:04 70.5 °F /  21.4 °C 65.8 °F /  18.8 °C 29.9in /  1012.2hPa SSE 3.6mph /  5.8km/h 9.7mph /  15.6km/h 85% 0in /  0.0mm
08:09 70.7 °F /  21.5 °C 66 °F /  18.9 °C 29.9in /  1012.4hPa SE 4.5mph /  7.2km/h 10mph /  16.1km/h 85% 0in /  0.0mm
08:14 70.9 °F /  21.6 °C 66 °F /  18.9 °C 29.9in /  1012.4hPa ESE 5.2mph /  8.4km/h 5mph /  8km/h 85% 0in /  0.0mm
08:19 71.1 °F /  21.7 °C 66.2 °F /  19 °C 29.9in /  1012.4hPa SE 3.9mph /  6.3km/h 6mph /  9.7km/h 84.9% 0in /  0.0mm
08:24 71.1 °F /  21.7 °C 66 °F /  18.9 °C 29.9in /  1012.5hPa Sur 2.9mph /  4.6km/h 5mph /  8km/h 84% 0in /  0.0mm
08:29 71.1 °F /  21.7 °C 65.8 °F /  18.8 °C 29.9in /  1012.5hPa SSO 3mph /  4.8km/h 6.9mph /  11.1km/h 83.4% 0in /  0.0mm
08:34 71.1 °F /  21.7 °C 65.7 °F /  18.7 °C 29.9in /  1012.5hPa SSE 3.1mph /  5km/h 7mph /  11.3km/h 83% 0in /  0.0mm
08:39 71.2 °F /  21.8 °C 66 °F /  18.9 °C 29.9in /  1012.9hPa Este 3.1mph /  5km/h 7mph /  11.3km/h 83.6% 0in /  0.0mm
08:44 71.4 °F /  21.9 °C 66 °F /  18.9 °C 29.9in /  1012.9hPa Sur 3.1mph /  5km/h 4.6mph /  7.4km/h 83% 0in /  0.0mm
08:49 71.4 °F /  21.9 °C 66 °F /  18.9 °C 29.9in /  1012.9hPa SE 2.7mph /  4.3km/h 5mph /  8km/h 83% 0in /  0.0mm
08:54 71.6 °F /  22 °C 66.2 °F /  19 °C 29.9in /  1012.9hPa ENE 2.4mph /  3.9km/h 5mph /  8km/h 83% 0in /  0.0mm
08:59 71.8 °F /  22.1 °C 66.2 °F /  19 °C 29.9in /  1012.7hPa ENE 2.2mph /  3.5km/h 5mph /  8km/h 82.5% 0in /  0.0mm
09:04 72 °F /  22.2 °C 66.2 °F /  19 °C 29.9in /  1012.7hPa Este 2mph /  3.2km/h 5mph /  8km/h 82% 0in /  0.0mm
09:09 72 °F /  22.2 °C 66 °F /  18.9 °C 29.9in /  1013.3hPa Este 2.7mph /  4.3km/h 5.8mph /  9.3km/h 82% 0in /  0.0mm
09:14 72 °F /  22.2 °C 66 °F /  18.9 °C 29.9in /  1013.3hPa ENE 3.1mph /  5km/h 6mph /  9.7km/h 82% 0in /  0.0mm
09:19 72 °F /  22.2 °C 66.2 °F /  19 °C 29.9in /  1013.3hPa NE 3.1mph /  5km/h 6mph /  9.7km/h 82% 0in /  0.0mm
09:24 72 °F /  22.2 °C 66 °F /  18.9 °C 29.9in /  1013.3hPa ENE 3.1mph /  5km/h 4.7mph /  7.6km/h 81.4% 0in /  0.0mm
09:29 72 °F /  22.2 °C 65.8 °F /  18.8 °C 29.9in /  1013.3hPa NE 3mph /  4.8km/h 6.2mph /  10km/h 81% 0in /  0.0mm
09:34 72.1 °F /  22.3 °C 66 °F /  18.9 °C 29.9in /  1013.3hPa NNE 2.9mph /  4.6km/h 6.4mph /  10.3km/h 81% 0in /  0.0mm
09:39 72.1 °F /  22.3 °C 66.2 °F /  19 °C 29.9in /  1013.4hPa NNE 3.7mph /  5.9km/h 7.4mph /  11.9km/h 81% 0in /  0.0mm
09:44 72.3 °F /  22.4 °C 66.4 °F /  19.1 °C 29.9in /  1013.4hPa NNE 4.3mph /  6.9km/h 7mph /  11.3km/h 81.6% 0in /  0.0mm
09:49 72.3 °F /  22.4 °C 66.6 °F /  19.2 °C 29.9in /  1013.4hPa NNE 4.1mph /  6.6km/h 6mph /  9.7km/h 82% 0in /  0.0mm
09:54 72.3 °F /  22.4 °C 66.6 °F /  19.2 °C 29.9in /  1013.6hPa NNE 4mph /  6.5km/h 6mph /  9.7km/h 82% 0in /  0.0mm
09:59 72.3 °F /  22.4 °C 66.6 °F /  19.2 °C 29.9in /  1013.6hPa NE 3.8mph /  6.1km/h 6mph /  9.7km/h 82% 0in /  0.0mm
10:04 72.3 °F /  22.4 °C 66.6 °F /  19.2 °C 29.9in /  1013.6hPa NE 3.6mph /  5.8km/h 6.9mph /  11.1km/h 81.8% 0in /  0.0mm
10:09 72.5 °F /  22.5 °C 66.2 °F /  19 °C 29.9in /  1013.6hPa NNE 4mph /  6.5km/h 7mph /  11.3km/h 80.6% 0in /  0.0mm
10:14 72.9 °F /  22.7 °C 66 °F /  18.9 °C 29.9in /  1013.3hPa NNE 4.3mph /  6.9km/h 7mph /  11.3km/h 79.2% 0in /  0.0mm
10:19 73 °F /  22.8 °C 65.8 °F /  18.8 °C 29.9in /  1013.3hPa NNE 3.9mph /  6.2km/h 6mph /  9.7km/h 78.1% 0in /  0.0mm
10:24 73 °F /  22.8 °C 65.7 °F /  18.7 °C 29.9in /  1013.3hPa NNE 3.6mph /  5.8km/h 6mph /  9.7km/h 77.8% 0in /  0.0mm
10:29 73.2 °F /  22.9 °C 65.7 °F /  18.7 °C 29.9in /  1013.1hPa NE 3.6mph /  5.8km/h 6mph /  9.7km/h 77% 0in /  0.0mm
10:34 73.2 °F /  22.9 °C 65.3 °F /  18.5 °C 29.9in /  1013.1hPa North 3.6mph /  5.8km/h 6mph /  9.7km/h 76.1% 0in /  0.0mm
10:39 73.4 °F /  23 °C 65.3 °F /  18.5 °C 29.9in /  1013.5hPa NNE 3.3mph /  5.3km/h 6mph /  9.7km/h 76% 0in /  0.0mm
10:44 73.6 °F /  23.1 °C 65.5 °F /  18.6 °C 29.9in /  1013.5hPa NE 3.1mph /  5km/h 5.8mph /  9.3km/h 75.6% 0in /  0.0mm
10:49 73.8 °F /  23.2 °C 65.5 °F /  18.6 °C 29.9in /  1013.5hPa NNE 3.1mph /  5km/h 6mph /  9.7km/h 75.2% 0in /  0.0mm
10:54 73.9 °F /  23.3 °C 65.5 °F /  18.6 °C 29.9in /  1013.5hPa NNE 3.1mph /  5km/h 7.4mph /  11.9km/h 74.8% 0in /  0.0mm
10:59 74.1 °F /  23.4 °C 65.3 °F /  18.5 °C 29.9in /  1013.2hPa NNE 3.4mph /  5.5km/h 7mph /  11.3km/h 74% 0in /  0.0mm
11:04 74.5 °F /  23.6 °C 65.5 °F /  18.6 °C 29.9in /  1013.2hPa NNE 3.6mph /  5.8km/h 7mph /  11.3km/h 74% 0in /  0.0mm
11:09 74.7 °F /  23.7 °C 65.5 °F /  18.6 °C 29.9in /  1013.2hPa ENE 3.7mph /  6km/h 7.4mph /  11.9km/h 73.2% 0in /  0.0mm
11:14 74.7 °F /  23.7 °C 65.5 °F /  18.6 °C 29.9in /  1012.9hPa NNE 4mph /  6.5km/h 7mph /  11.3km/h 73% 0in /  0.0mm
11:19 74.8 °F /  23.8 °C 65.7 °F /  18.7 °C 29.9in /  1012.9hPa NE 4.1mph /  6.6km/h 8.1mph /  13km/h 73.2% 0in /  0.0mm
11:24 75.2 °F /  24 °C 65.7 °F /  18.7 °C 29.9in /  1013.1hPa NNE 4.3mph /  6.9km/h 8.1mph /  13km/h 72.4% 0in /  0.0mm
11:29 75.4 °F /  24.1 °C 65.5 °F /  18.6 °C 29.9in /  1013.1hPa NNE 4.3mph /  6.9km/h 9.2mph /  14.8km/h 71.5% 0in /  0.0mm
11:34 75.2 °F /  24 °C 65.5 °F /  18.6 °C 29.9in /  1013.1hPa NNE 4.3mph /  6.9km/h 9mph /  14.5km/h 71.6% 0in /  0.0mm
11:39 75.6 °F /  24.2 °C 65.8 °F /  18.8 °C 29.9in /  1013.1hPa NNE 4.2mph /  6.7km/h 8mph /  12.9km/h 72% 0in /  0.0mm
11:44 75.7 °F /  24.3 °C 65.8 °F /  18.8 °C 29.9in /  1013.0hPa North 4mph /  6.5km/h 9.2mph /  14.8km/h 71.4% 0in /  0.0mm
11:49 75.9 °F /  24.4 °C 65.5 °F /  18.6 °C 29.9in /  1013.0hPa NNE 3.5mph /  5.7km/h 9.2mph /  14.8km/h 70% 0in /  0.0mm
11:54 75.7 °F /  24.3 °C 65.5 °F /  18.6 °C 29.9in /  1013.0hPa NO 3.1mph /  5km/h 9mph /  14.5km/h 70.3% 0in /  0.0mm
11:59 75.9 °F /  24.4 °C 65.3 °F /  18.5 °C 29.9in /  1012.6hPa ENE 3.4mph /  5.5km/h 9.2mph /  14.8km/h 69.7% 0in /  0.0mm
12:04 75.7 °F /  24.3 °C 65.3 °F /  18.5 °C 29.9in /  1012.5hPa NE 3.6mph /  5.8km/h 11.5mph /  18.5km/h 70% 0in /  0.0mm
12:09 75.7 °F /  24.3 °C 65.5 °F /  18.6 °C 29.9in /  1012.7hPa NE 4.5mph /  7.3km/h 12mph /  19.3km/h 70.6% 0in /  0.0mm
12:14 75.9 °F /  24.4 °C 65.8 °F /  18.8 °C 29.9in /  1012.7hPa NE 5.4mph /  8.7km/h 10mph /  16.1km/h 71% 0in /  0.0mm
12:19 76.3 °F /  24.6 °C 66.2 °F /  19 °C 29.9in /  1012.7hPa North 5mph /  8.1km/h 11.8mph /  19km/h 71% 0in /  0.0mm
12:24 76.6 °F /  24.8 °C 66.6 °F /  19.2 °C 29.9in /  1012.7hPa North 4.7mph /  7.6km/h 12mph /  19.3km/h 71% 0in /  0.0mm
12:29 77 °F /  25 °C 66.7 °F /  19.3 °C 29.9in /  1012.7hPa NNO 5mph /  8km/h 10mph /  16.1km/h 70.5% 0in /  0.0mm
12:34 77.2 °F /  25.1 °C 66.6 °F /  19.2 °C 29.9in /  1012.7hPa NNE 5.2mph /  8.4km/h 11.8mph /  19km/h 70% 0in /  0.0mm
12:39 77 °F /  25 °C 66.2 °F /  19 °C 29.9in /  1012.7hPa NNE 5.9mph /  9.5km/h 12mph /  19.3km/h 69.3% 0in /  0.0mm
12:44 77.2 °F /  25.1 °C 66.2 °F /  19 °C 29.9in /  1012.6hPa ENE 6.4mph /  10.3km/h 12mph /  19.3km/h 69% 0in /  0.0mm
12:49 77.4 °F /  25.2 °C 66.4 °F /  19.1 °C 29.9in /  1012.6hPa NE 5.8mph /  9.4km/h 11mph /  17.7km/h 69% 0in /  0.0mm
12:54 77.4 °F /  25.2 °C 66.4 °F /  19.1 °C 29.9in /  1012.6hPa NNE 5.4mph /  8.7km/h 13.8mph /  22.2km/h 69% 0in /  0.0mm
12:59 77.2 °F /  25.1 °C 66.4 °F /  19.1 °C 29.9in /  1012.1hPa NNE 6.6mph /  10.6km/h 14mph /  22.5km/h 69.6% 0in /  0.0mm
13:04 77.4 °F /  25.2 °C 66.4 °F /  19.1 °C 29.9in /  1012.1hPa NNE 7.4mph /  11.9km/h 14mph /  22.5km/h 69.2% 0in /  0.0mm
13:09 77.5 °F /  25.3 °C 66.4 °F /  19.1 °C 29.9in /  1012.1hPa NE 6.7mph /  10.8km/h 13mph /  20.9km/h 68.7% 0in /  0.0mm
13:14 77.5 °F /  25.3 °C 66 °F /  18.9 °C 29.9in /  1012.1hPa NNE 6.2mph /  10km/h 12.7mph /  20.4km/h 68% 0in /  0.0mm
13:19 77.7 °F /  25.4 °C 66.4 °F /  19.1 °C 29.9in /  1012.1hPa NE 6.3mph /  10.2km/h 13mph /  20.9km/h 68.1% 0in /  0.0mm
13:24 77.9 °F /  25.5 °C 66.4 °F /  19.1 °C 29.9in /  1012.1hPa NNE 6.4mph /  10.3km/h 12.5mph /  20.1km/h 67.7% 0in /  0.0mm
13:29 78.1 °F /  25.6 °C 66 °F /  18.9 °C 29.9in /  1011.8hPa NE 6.2mph /  9.9km/h 13mph /  20.9km/h 66.4% 0in /  0.0mm
13:34 78.3 °F /  25.7 °C 66 °F /  18.9 °C 29.9in /  1011.8hPa NNE 5.9mph /  9.5km/h 13mph /  20.9km/h 66.2% 0in /  0.0mm
13:39 78.3 °F /  25.7 °C 65.8 °F /  18.8 °C 29.9in /  1012.1hPa NE 5.6mph /  9km/h 11.8mph /  19km/h 65.7% 0in /  0.0mm
13:44 78.1 °F /  25.6 °C 65.8 °F /  18.8 °C 29.9in /  1012.1hPa NE 5.4mph /  8.7km/h 12mph /  19.3km/h 66.1% 0in /  0.0mm
13:49 77.9 °F /  25.5 °C 65.5 °F /  18.6 °C 29.9in /  1012.1hPa NE 6mph /  9.6km/h 9.7mph /  15.6km/h 65.5% 0in /  0.0mm
13:54 77.9 °F /  25.5 °C 65.7 °F /  18.7 °C 29.9in /  1012.6hPa ENE 6.4mph /  10.3km/h 10mph /  16.1km/h 66% 0in /  0.0mm
13:59 78.3 °F /  25.7 °C 65.7 °F /  18.7 °C 29.9in /  1012.6hPa NE 5.7mph /  9.1km/h 11.5mph /  18.5km/h 65.3% 0in /  0.0mm
14:04 78.3 °F /  25.7 °C 66 °F /  18.9 °C 29.9in /  1012.6hPa NNE 5.2mph /  8.4km/h 12mph /  19.3km/h 66% 0in /  0.0mm
14:09 78.4 °F /  25.8 °C 66.2 °F /  19 °C 29.9in /  1013.2hPa Este 4.5mph /  7.3km/h 8.5mph /  13.7km/h 66% 0in /  0.0mm
14:14 79 °F /  26.1 °C 66.2 °F /  19 °C 29.9in /  1013.2hPa Este 4mph /  6.5km/h 9.2mph /  14.8km/h 65.1% 0in /  0.0mm
14:19 79.2 °F /  26.2 °C 66.4 °F /  19.1 °C 29.9in /  1013.2hPa NE 4.7mph /  7.6km/h 12.5mph /  20.1km/h 65% 0in /  0.0mm
14:24 79 °F /  26.1 °C 66.4 °F /  19.1 °C 29.9in /  1013.2hPa NNE 5.2mph /  8.4km/h 13mph /  20.9km/h 65.2% 0in /  0.0mm
14:29 78.8 °F /  26 °C 66 °F /  18.9 °C 29.9in /  1012.3hPa North 5.9mph /  9.5km/h 13mph /  20.9km/h 65.1% 0in /  0.0mm
14:34 79 °F /  26.1 °C 66.4 °F /  19.1 °C 29.9in /  1012.2hPa NNE 6.4mph /  10.3km/h 10.4mph /  16.7km/h 65.8% 0in /  0.0mm
14:39 79.2 °F /  26.2 °C 66.4 °F /  19.1 °C 29.9in /  1012.2hPa NNE 5.5mph /  8.8km/h 9mph /  14.5km/h 65% 0in /  0.0mm
14:44 79.3 °F /  26.3 °C 66.6 °F /  19.2 °C 29.9in /  1012.2hPa NNE 4.7mph /  7.6km/h 8.1mph /  13km/h 65% 0in /  0.0mm
14:49 79.2 °F /  26.2 °C 66.4 °F /  19.1 °C 29.9in /  1012.2hPa NNE 4.7mph /  7.6km/h 9.2mph /  14.8km/h 64.9% 0in /  0.0mm
14:54 79 °F /  26.1 °C 66.2 °F /  19 °C 29.9in /  1012.2hPa NNE 4.7mph /  7.6km/h 13.7mph /  22km/h 65% 0in /  0.0mm
14:59 78.6 °F /  25.9 °C 66.2 °F /  19 °C 29.9in /  1011.9hPa NE 5.7mph /  9.2km/h 14mph /  22.5km/h 65.4% 0in /  0.0mm
15:04 78.6 °F /  25.9 °C 65.8 °F /  18.8 °C 29.9in /  1011.8hPa NNE 6.2mph /  10km/h 14mph /  22.5km/h 65% 0in /  0.0mm
15:09 78.4 °F /  25.8 °C 65.8 °F /  18.8 °C 29.9in /  1012.1hPa NE 6.9mph /  11.1km/h 13.5mph /  21.7km/h 65.2% 0in /  0.0mm
15:14 78.4 °F /  25.8 °C 65.8 °F /  18.8 °C 29.9in /  1012.1hPa NE 7.4mph /  11.9km/h 15mph /  24.1km/h 65% 0in /  0.0mm
15:19 78.4 °F /  25.8 °C 65.8 °F /  18.8 °C 29.9in /  1012.1hPa NE 7.8mph /  12.6km/h 15mph /  24.1km/h 65.5% 0in /  0.0mm
15:24 78.3 °F /  25.7 °C 66 °F /  18.9 °C 29.9in /  1012.1hPa NE 8.1mph /  13km/h 14mph /  22.5km/h 66% 0in /  0.0mm
15:29 78.3 °F /  25.7 °C 66.4 °F /  19.1 °C 29.9in /  1012.1hPa ENE 8.3mph /  13.4km/h 14mph /  22.5km/h 67% 0in /  0.0mm
15:34 78.1 °F /  25.6 °C 66.7 °F /  19.3 °C 29.9in /  1012.1hPa NE 8.5mph /  13.7km/h 13mph /  20.9km/h 68.1% 0in /  0.0mm
15:39 77.7 °F /  25.4 °C 66.7 °F /  19.3 °C 29.9in /  1012.1hPa NNE 7.2mph /  11.6km/h 13mph /  20.9km/h 68.9% 0in /  0.0mm
15:44 77.5 °F /  25.3 °C 66.9 °F /  19.4 °C 29.9in /  1011.7hPa NE 6.4mph /  10.3km/h 11.5mph /  18.5km/h 69.8% 0in /  0.0mm
15:49 77.5 °F /  25.3 °C 67.3 °F /  19.6 °C 29.9in /  1011.7hPa Este 7mph /  11.3km/h 12mph /  19.3km/h 70.5% 0in /  0.0mm
15:54 77.5 °F /  25.3 °C 67.1 °F /  19.5 °C 29.9in /  1011.8hPa NE 7.4mph /  11.9km/h 12.7mph /  20.4km/h 69.9% 0in /  0.0mm
15:59 77.4 °F /  25.2 °C 66.9 °F /  19.4 °C 29.9in /  1011.8hPa NE 7.1mph /  11.4km/h 13mph /  20.9km/h 70.1% 0in /  0.0mm
16:04 77.2 °F /  25.1 °C 67.3 °F /  19.6 °C 29.9in /  1011.8hPa ENE 6.9mph /  11.1km/h 13mph /  20.9km/h 71.5% 0in /  0.0mm
16:09 77.2 °F /  25.1 °C 67.5 °F /  19.7 °C 29.9in /  1012.0hPa ENE 6.5mph /  10.4km/h 11.2mph /  18km/h 72% 0in /  0.0mm
16:14 77 °F /  25 °C 66.9 °F /  19.4 °C 29.9in /  1012.0hPa NE 6.2mph /  10km/h 12mph /  19.3km/h 71.1% 0in /  0.0mm
16:19 76.8 °F /  24.9 °C 66.2 °F /  19 °C 29.9in /  1012.0hPa NE 6.6mph /  10.6km/h 17mph /  27.4km/h 69.6% 0in /  0.0mm
16:24 76.8 °F /  24.9 °C 65.8 °F /  18.8 °C 29.9in /  1012.0hPa NE 6.9mph /  11.1km/h 17.8mph /  28.6km/h 68.7% 0in /  0.0mm
16:29 76.8 °F /  24.9 °C 66 °F /  18.9 °C 29.9in /  1011.6hPa Este 7.9mph /  12.7km/h 18mph /  29km/h 69.2% 0in /  0.0mm
16:34 77 °F /  25 °C 66.2 °F /  19 °C 29.9in /  1011.5hPa ESE 8.5mph /  13.7km/h 10mph /  16.1km/h 69.3% 0in /  0.0mm
16:39 76.8 °F /  24.9 °C 65.8 °F /  18.8 °C 29.9in /  1011.5hPa NE 6.6mph /  10.6km/h 9.2mph /  14.8km/h 68.9% 0in /  0.0mm
16:44 76.8 °F /  24.9 °C 65.8 °F /  18.8 °C 29.9in /  1011.5hPa NE 5.4mph /  8.7km/h 14.5mph /  23.3km/h 69% 0in /  0.0mm
16:49 76.6 °F /  24.8 °C 66.2 °F /  19 °C 29.9in /  1011.5hPa NE 7.6mph /  12.2km/h 17.3mph /  27.8km/h 70.2% 0in /  0.0mm
16:54 76.6 °F /  24.8 °C 66.7 °F /  19.3 °C 29.9in /  1011.9hPa Este 9.2mph /  14.8km/h 17mph /  27.4km/h 71.9% 0in /  0.0mm
16:59 76.5 °F /  24.7 °C 66.7 °F /  19.3 °C 29.9in /  1011.9hPa ENE 8.1mph /  13km/h 12mph /  19.3km/h 71.9% 0in /  0.0mm
17:04 76.1 °F /  24.5 °C 66.6 °F /  19.2 °C 29.9in /  1011.9hPa NE 7.4mph /  11.9km/h 12mph /  19.3km/h 72.3% 0in /  0.0mm
17:09 76.5 °F /  24.7 °C 67.1 °F /  19.5 °C 29.9in /  1011.9hPa NE 6.5mph /  10.4km/h 10.4mph /  16.7km/h 73.2% 0.02in /  0.5mm
17:14 76.6 °F /  24.8 °C 67.5 °F /  19.7 °C 29.9in /  1010.9hPa NE 5.9mph /  9.5km/h 15mph /  24.1km/h 73.1% 0.02in /  0.5mm
17:19 76.8 °F /  24.9 °C 66.7 °F /  19.3 °C 29.9in /  1010.8hPa ENE 6.7mph /  10.8km/h 15mph /  24.1km/h 71% 0.02in /  0.5mm
17:24 76.8 °F /  24.9 °C 65.8 °F /  18.8 °C 29.9in /  1011.4hPa ENE 7.4mph /  11.9km/h 14.5mph /  23.3km/h 68.9% 0.02in /  0.5mm
17:29 76.8 °F /  24.9 °C 65.3 °F /  18.5 °C 29.9in /  1011.4hPa NE 7.4mph /  11.9km/h 15mph /  24.1km/h 67.7% 0.02in /  0.5mm
17:34 77 °F /  25 °C 65.7 °F /  18.7 °C 29.9in /  1011.4hPa North 7.4mph /  11.9km/h 15mph /  24.1km/h 68.3% 0.02in /  0.5mm
17:39 77.2 °F /  25.1 °C 65.7 °F /  18.7 °C 29.9in /  1011.4hPa NNE 5.3mph /  8.6km/h 9.2mph /  14.8km/h 67.7% 0.02in /  0.5mm
17:44 77.4 °F /  25.2 °C 66 °F /  18.9 °C 29.9in /  1011.2hPa NNO 4mph /  6.5km/h 9mph /  14.5km/h 68% 0.02in /  0.5mm
17:49 77.7 °F /  25.4 °C 66.7 °F /  19.3 °C 29.9in /  1011.2hPa North 4.4mph /  7.1km/h 9.2mph /  14.8km/h 69% 0.02in /  0.5mm
17:54 77.9 °F /  25.5 °C 66.4 °F /  19.1 °C 29.9in /  1012.1hPa NNE 4.7mph /  7.6km/h 9mph /  14.5km/h 67.8% 0.02in /  0.5mm
17:59 77.9 °F /  25.5 °C 66.4 °F /  19.1 °C 29.9in /  1012.1hPa NNE 4.5mph /  7.2km/h 9.7mph /  15.6km/h 67.7% 0.02in /  0.5mm
18:04 77.7 °F /  25.4 °C 66 °F /  18.9 °C 29.9in /  1012.1hPa NNE 4.3mph /  6.9km/h 10mph /  16.1km/h 67.3% 0.02in /  0.5mm
18:09 77.5 °F /  25.3 °C 66 °F /  18.9 °C 29.9in /  1012.5hPa NNE 4.5mph /  7.3km/h 8.5mph /  13.7km/h 67.7% 0.02in /  0.5mm
18:14 77.5 °F /  25.3 °C 65.7 °F /  18.7 °C 29.9in /  1012.5hPa NE 4.7mph /  7.6km/h 11.8mph /  19km/h 66.7% 0in /  0.0mm
18:19 77.7 °F /  25.4 °C 65.3 °F /  18.5 °C 29.9in /  1012.5hPa NE 5.7mph /  9.1km/h 13.8mph /  22.2km/h 65.8% 0in /  0.0mm
18:24 77.7 °F /  25.4 °C 65.1 °F /  18.4 °C 29.9in /  1012.5hPa NE 6.4mph /  10.3km/h 14mph /  22.5km/h 65.2% 0in /  0.0mm
18:29 77.7 °F /  25.4 °C 65.1 °F /  18.4 °C 29.9in /  1012.0hPa NE 6.7mph /  10.8km/h 14mph /  22.5km/h 65.1% 0in /  0.0mm
18:34 77.5 °F /  25.3 °C 65.7 °F /  18.7 °C 29.9in /  1011.9hPa NE 6.9mph /  11.1km/h 14mph /  22.5km/h 66.7% 0in /  0.0mm
18:39 77.4 °F /  25.2 °C 65.5 °F /  18.6 °C 29.9in /  1011.9hPa NE 7.2mph /  11.6km/h 14mph /  22.5km/h 67% 0in /  0.0mm
18:44 77.2 °F /  25.1 °C 65.5 °F /  18.6 °C 29.9in /  1011.6hPa NE 7.4mph /  11.9km/h 15.2mph /  24.5km/h 67.3% 0in /  0.0mm
18:49 76.6 °F /  24.8 °C 65.8 °F /  18.8 °C 29.9in /  1011.6hPa NNE 8.4mph /  13.6km/h 15mph /  24.1km/h 68.9% 0in /  0.0mm
18:54 76.5 °F /  24.7 °C 65.8 °F /  18.8 °C 29.9in /  1011.6hPa NE 9.2mph /  14.8km/h 14.5mph /  23.3km/h 69.6% 0in /  0.0mm
18:59 76.5 °F /  24.7 °C 65.8 °F /  18.8 °C 29.9in /  1011.3hPa NE 8.9mph /  14.3km/h 15mph /  24.1km/h 70% 0in /  0.0mm
19:04 76.3 °F /  24.6 °C 65.8 °F /  18.8 °C 29.9in /  1011.3hPa NNE 8.7mph /  14km/h 15mph /  24.1km/h 70% 0in /  0.0mm
19:08 76.3 °F /  24.6 °C 65.8 °F /  18.8 °C 29.9in /  1011.3hPa NNE 8.7mph /  14km/h 15mph /  24.1km/h 70.4% 0in /  0.0mm
19:19 75.7 °F /  24.3 °C 65.7 °F /  18.7 °C 29.9in /  1011.1hPa NE 9.1mph /  14.6km/h 12.7mph /  20.4km/h 71% 0in /  0.0mm
19:24 75.7 °F /  24.3 °C 65.7 °F /  18.7 °C 29.9in /  1011.1hPa NE 9.2mph /  14.8km/h 13mph /  20.9km/h 71% 0in /  0.0mm
19:29 75.6 °F /  24.2 °C 65.8 °F /  18.8 °C 29.9in /  1011.1hPa NE 8.5mph /  13.7km/h 13mph /  20.9km/h 72% 0in /  0.0mm
19:34 75.6 °F /  24.2 °C 65.8 °F /  18.8 °C 29.9in /  1011.1hPa NE 8.1mph /  13km/h 14mph /  22.5km/h 72% 0in /  0.0mm
19:39 75.6 °F /  24.2 °C 65.8 °F /  18.8 °C 29.9in /  1011.2hPa NE 7.8mph /  12.6km/h 14mph /  22.5km/h 72% 0in /  0.0mm
19:44 75.4 °F /  24.1 °C 65.7 °F /  18.7 °C 29.9in /  1011.2hPa NE 7.6mph /  12.2km/h 10mph /  16.1km/h 72.1% 0in /  0.0mm
19:49 75.4 °F /  24.1 °C 66 °F /  18.9 °C 29.9in /  1011.2hPa NE 6.8mph /  11km/h 10.4mph /  16.7km/h 73% 0in /  0.0mm
19:54 75.2 °F /  24 °C 66 °F /  18.9 °C 29.9in /  1011.2hPa NNE 6.2mph /  10km/h 10.7mph /  17.2km/h 73.4% 0in /  0.0mm
19:59 75 °F /  23.9 °C 66 °F /  18.9 °C 29.9in /  1010.8hPa NNE 6.2mph /  10km/h 13.8mph /  22.2km/h 73.7% 0in /  0.0mm
20:04 75 °F /  23.9 °C 66.2 °F /  19 °C 29.9in /  1010.8hPa NE 6.2mph /  10km/h 15mph /  24.1km/h 74% 0in /  0.0mm
20:09 74.8 °F /  23.8 °C 66.2 °F /  19 °C 29.9in /  1010.9hPa NE 7.6mph /  12.2km/h 15mph /  24.1km/h 74.4% 0in /  0.0mm
20:14 74.8 °F /  23.8 °C 66.4 °F /  19.1 °C 29.9in /  1010.9hPa NE 8.5mph /  13.7km/h 13.8mph /  22.2km/h 75% 0in /  0.0mm
20:19 74.7 °F /  23.7 °C 66.2 °F /  19 °C 29.9in /  1010.9hPa NNE 8mph /  12.9km/h 14mph /  22.5km/h 75% 0in /  0.0mm
20:24 74.7 °F /  23.7 °C 66.4 °F /  19.1 °C 29.9in /  1011.0hPa NE 7.6mph /  12.2km/h 10.4mph /  16.7km/h 75.7% 0in /  0.0mm
20:29 74.5 °F /  23.6 °C 66.4 °F /  19.1 °C 29.9in /  1011.0hPa NE 6.8mph /  11km/h 10.7mph /  17.2km/h 76% 0in /  0.0mm
20:34 74.3 °F /  23.5 °C 66.6 °F /  19.2 °C 29.9in /  1011.0hPa NE 6.2mph /  10km/h 11mph /  17.7km/h 76.5% 0in /  0.0mm
20:39 74.3 °F /  23.5 °C 66.6 °F /  19.2 °C 29.9in /  1011.7hPa NE 6.3mph /  10.2km/h 10mph /  16.1km/h 77% 0in /  0.0mm
20:44 74.1 °F /  23.4 °C 66.4 °F /  19.1 °C 29.9in /  1011.7hPa NNE 6.4mph /  10.3km/h 9mph /  14.5km/h 77% 0in /  0.0mm
20:49 74.1 °F /  23.4 °C 66.6 °F /  19.2 °C 29.9in /  1011.7hPa NE 6.1mph /  9.8km/h 8.1mph /  13km/h 77% 0in /  0.0mm
20:54 74.3 °F /  23.5 °C 66.6 °F /  19.2 °C 29.9in /  1012.1hPa NE 5.9mph /  9.5km/h 8.1mph /  13km/h 77% 0in /  0.0mm
20:59 74.3 °F /  23.5 °C 66.6 °F /  19.2 °C 29.9in /  1012.1hPa NE 5mph /  8km/h 10.2mph /  16.4km/h 77% 0in /  0.0mm
21:04 74.3 °F /  23.5 °C 66.6 °F /  19.2 °C 29.9in /  1012.1hPa NE 4.3mph /  6.9km/h 10.4mph /  16.7km/h 77% 0in /  0.0mm
21:09 74.3 °F /  23.5 °C 66.6 °F /  19.2 °C 29.9in /  1012.9hPa NE 4.8mph /  7.8km/h 10mph /  16.1km/h 77% 0in /  0.0mm
21:14 74.3 °F /  23.5 °C 66.6 °F /  19.2 °C 29.9in /  1012.9hPa NE 5.2mph /  8.4km/h 7.4mph /  11.9km/h 77% 0in /  0.0mm
21:19 74.3 °F /  23.5 °C 66.6 °F /  19.2 °C 29.9in /  1012.9hPa NE 4.9mph /  7.9km/h 9.2mph /  14.8km/h 77% 0in /  0.0mm
21:24 74.3 °F /  23.5 °C 66.6 °F /  19.2 °C 29.9in /  1013.0hPa NE 4.7mph /  7.6km/h 9mph /  14.5km/h 77% 0in /  0.0mm
21:29 74.3 °F /  23.5 °C 66.6 °F /  19.2 °C 29.9in /  1013.0hPa NE 4.7mph /  7.6km/h 10.4mph /  16.7km/h 77% 0in /  0.0mm
21:34 74.1 °F /  23.4 °C 66.6 °F /  19.2 °C 29.9in /  1013.0hPa NE 4.7mph /  7.6km/h 10mph /  16.1km/h 77.6% 0in /  0.0mm
21:39 74.1 °F /  23.4 °C 66.7 °F /  19.3 °C 29.9in /  1013.2hPa ENE 5.1mph /  8.2km/h 11.2mph /  18km/h 78% 0in /  0.0mm
21:44 73.9 °F /  23.3 °C 66.6 °F /  19.2 °C 29.9in /  1013.2hPa Este 5.4mph /  8.7km/h 12mph /  19.3km/h 77.7% 0in /  0.0mm
21:49 73.9 °F /  23.3 °C 66.2 °F /  19 °C 29.9in /  1013.2hPa ESE 5mph /  8km/h 9mph /  14.5km/h 76.9% 0in /  0.0mm
21:54 73.9 °F /  23.3 °C 65.8 °F /  18.8 °C 29.9in /  1013.2hPa Este 4.7mph /  7.6km/h 9.7mph /  15.6km/h 76% 0in /  0.0mm
21:59 73.9 °F /  23.3 °C 66 °F /  18.9 °C 29.9in /  1013.2hPa ESE 4.5mph /  7.2km/h 10mph /  16.1km/h 76% 0in /  0.0mm
22:04 73.9 °F /  23.3 °C 65.5 °F /  18.6 °C 29.9in /  1013.2hPa Este 4.3mph /  6.9km/h 10.2mph /  16.4km/h 75.1% 0in /  0.0mm
22:09 73.8 °F /  23.2 °C 65.3 °F /  18.5 °C 29.9in /  1013.3hPa ENE 4.5mph /  7.3km/h 10.4mph /  16.7km/h 75% 0in /  0.0mm
22:14 73.8 °F /  23.2 °C 65.3 °F /  18.5 °C 29.9in /  1013.3hPa NE 4.7mph /  7.6km/h 10.2mph /  16.4km/h 75.3% 0in /  0.0mm
22:19 73.4 °F /  23 °C 65.5 °F /  18.6 °C 29.9in /  1013.3hPa NE 5.3mph /  8.6km/h 10.4mph /  16.7km/h 76.2% 0in /  0.0mm
22:24 73 °F /  22.8 °C 65.5 °F /  18.6 °C 29.9in /  1013.5hPa NE 5.9mph /  9.5km/h 10mph /  16.1km/h 77% 0in /  0.0mm
22:29 73 °F /  22.8 °C 65.7 °F /  18.7 °C 29.9in /  1013.5hPa ENE 5.6mph /  9km/h 10mph /  16.1km/h 77.7% 0in /  0.0mm
22:34 72.9 °F /  22.7 °C 65.5 °F /  18.6 °C 29.9in /  1013.5hPa NE 5.4mph /  8.7km/h 8.1mph /  13km/h 77.9% 0in /  0.0mm
22:39 72.7 °F /  22.6 °C 65.5 °F /  18.6 °C 29.9in /  1013.6hPa NE 5mph /  8.1km/h 9.2mph /  14.8km/h 78% 0in /  0.0mm
22:44 72.5 °F /  22.5 °C 65.3 °F /  18.5 °C 29.9in /  1013.6hPa NE 4.7mph /  7.6km/h 9mph /  14.5km/h 78.2% 0in /  0.0mm
22:49 72.3 °F /  22.4 °C 65.5 °F /  18.6 °C 29.9in /  1013.6hPa NE 4.7mph /  7.6km/h 8.1mph /  13km/h 79% 0in /  0.0mm
22:54 72.1 °F /  22.3 °C 65.5 °F /  18.6 °C 29.9in /  1013.6hPa NE 4.7mph /  7.6km/h 8mph /  12.9km/h 79.1% 0in /  0.0mm
22:59 72.1 °F /  22.3 °C 65.7 °F /  18.7 °C 29.9in /  1013.3hPa ENE 4.5mph /  7.2km/h 7mph /  11.3km/h 80% 0in /  0.0mm
23:04 72.1 °F /  22.3 °C 65.7 °F /  18.7 °C 29.9in /  1013.3hPa NNE 4.3mph /  6.9km/h 7mph /  11.3km/h 80% 0in /  0.0mm
23:09 72 °F /  22.2 °C 65.5 °F /  18.6 °C 29.9in /  1013.3hPa NNE 4.3mph /  6.9km/h 8.1mph /  13km/h 80% 0in /  0.0mm
23:14 71.8 °F /  22.1 °C 65.7 °F /  18.7 °C 29.9in /  1013.1hPa NNE 4.3mph /  6.9km/h 8.5mph /  13.7km/h 80.9% 0in /  0.0mm
23:19 71.8 °F /  22.1 °C 65.7 °F /  18.7 °C 29.9in /  1013.1hPa NE 4.3mph /  6.9km/h 9mph /  14.5km/h 81% 0in /  0.0mm
23:24 71.6 °F /  22 °C 65.7 °F /  18.7 °C 29.9in /  1013.4hPa NE 4.3mph /  6.9km/h 8.1mph /  13km/h 81.6% 0in /  0.0mm
23:29 71.4 °F /  21.9 °C 65.7 °F /  18.7 °C 29.9in /  1013.4hPa NE 4.5mph /  7.3km/h 8.1mph /  13km/h 82% 0in /  0.0mm
23:34 71.4 °F /  21.9 °C 65.8 °F /  18.8 °C 29.9in /  1013.4hPa NE 4.7mph /  7.6km/h 8mph /  12.9km/h 82.5% 0in /  0.0mm
23:39 71.2 °F /  21.8 °C 65.8 °F /  18.8 °C 29.9in /  1013.4hPa NE 4.7mph /  7.6km/h 8.1mph /  13km/h 83% 0in /  0.0mm
23:44 71.2 °F /  21.8 °C 65.7 °F /  18.7 °C 29.9in /  1013.0hPa NNE 4.7mph /  7.6km/h 9.7mph /  15.6km/h 83% 0in /  0.0mm
23:49 71.1 °F /  21.7 °C 65.8 °F /  18.8 °C 29.9in /  1012.9hPa NE 5mph /  8.1km/h 10mph /  16.1km/h 83.7% 0in /  0.0mm
23:54 71.1 °F /  21.7 °C 66 °F /  18.9 °C 29.9in /  1012.9hPa NE 5.2mph /  8.4km/h 8.1mph /  13km/h 84% 0in /  0.0mm
23:59 70.9 °F /  21.6 °C 65.8 °F /  18.8 °C 29.9in /  1012.5hPa NNE 4.2mph /  6.8km/h 8mph /  12.9km/h 84% 0in /  0.0mm
Murcia-Puente Tocinos, España
Compliments of Weather Underground - 2.75 mb

La estación de MeteoMurcia.com, publica sus datos en los siguientes proyectos:

Weather Underground PWS IMURCIAP2 Meteoclimatic www.awekas.at

W3Counter
Web Analytics